createdAt,value
2022-11-17T00:01:38.136Z,10.97
2022-11-17T00:04:06.493Z,10.98
2022-11-17T00:06:34.793Z,11.00
2022-11-17T00:09:04.469Z,10.98
2022-11-17T00:11:52.706Z,10.96
2022-11-17T00:14:36.755Z,10.96
2022-11-17T00:17:08.072Z,10.93
2022-11-17T00:19:53.631Z,10.95
2022-11-17T00:22:22.296Z,10.91
2022-11-17T00:24:52.340Z,10.91
2022-11-17T00:27:20.558Z,10.91
2022-11-17T00:29:48.774Z,10.91
2022-11-17T00:32:36.858Z,10.90
2022-11-17T00:35:06.006Z,10.89
2022-11-17T00:37:37.937Z,10.88
2022-11-17T00:40:09.108Z,10.88
2022-11-17T00:42:37.388Z,10.89
2022-11-17T00:45:06.727Z,10.89
2022-11-17T00:47:37.493Z,10.89
2022-11-17T00:50:07.141Z,10.89
2022-11-17T00:52:35.416Z,10.90
2022-11-17T00:55:04.097Z,10.89
2022-11-17T00:57:33.702Z,10.89
2022-11-17T01:00:01.905Z,10.90
2022-11-17T01:02:30.209Z,10.91
2022-11-17T01:04:58.468Z,10.90
2022-11-17T01:07:26.834Z,10.91
2022-11-17T01:09:55.136Z,10.92
2022-11-17T01:12:23.400Z,10.93
2022-11-17T01:14:53.048Z,10.98
2022-11-17T01:17:21.249Z,10.96
2022-11-17T01:19:50.848Z,10.96
2022-11-17T01:22:19.194Z,10.91
2022-11-17T01:24:47.413Z,10.90
2022-11-17T01:27:15.716Z,10.90
2022-11-17T01:29:43.951Z,10.91
2022-11-17T01:32:13.534Z,10.90
2022-11-17T01:34:41.725Z,10.89
2022-11-17T01:37:22.021Z,10.90
2022-11-17T01:39:51.283Z,10.89
2022-11-17T01:42:22.659Z,10.88
2022-11-17T01:45:03.212Z,10.87
2022-11-17T01:47:40.511Z,10.87
2022-11-17T01:50:17.685Z,10.90
2022-11-17T01:52:47.557Z,10.89
2022-11-17T01:55:15.935Z,10.91
2022-11-17T01:57:49.044Z,10.91
2022-11-17T02:00:18.638Z,10.93
2022-11-17T02:02:49.756Z,10.93
2022-11-17T02:05:38.460Z,10.92
2022-11-17T02:08:08.165Z,10.93
2022-11-17T02:10:37.592Z,10.93
2022-11-17T02:13:06.593Z,10.94
2022-11-17T02:15:34.920Z,10.97
2022-11-17T02:18:04.780Z,10.98
2022-11-17T02:20:51.629Z,10.99
2022-11-17T02:24:14.118Z,11.00
2022-11-17T02:27:29.007Z,10.98
2022-11-17T02:30:05.640Z,10.98
2022-11-17T02:32:50.144Z,11.01
2022-11-17T02:35:25.991Z,11.01
2022-11-17T02:38:04.717Z,11.05
2022-11-17T02:40:36.404Z,11.04
2022-11-17T02:43:28.943Z,11.07
2022-11-17T02:46:04.658Z,11.05
2022-11-17T02:48:35.946Z,11.06
2022-11-17T02:51:10.054Z,11.08
2022-11-17T02:53:39.725Z,11.05
2022-11-17T02:56:09.228Z,11.07
2022-11-17T02:58:38.881Z,11.06
2022-11-17T03:01:33.296Z,11.04
2022-11-17T03:04:21.997Z,11.05
2022-11-17T03:07:00.266Z,11.02
2022-11-17T03:09:40.181Z,11.02
2022-11-17T03:12:13.495Z,11.03
2022-11-17T03:14:53.117Z,11.02
2022-11-17T03:17:28.788Z,11.01
2022-11-17T03:20:05.194Z,11.00
2022-11-17T03:22:43.715Z,11.01
2022-11-17T03:25:19.857Z,11.02
2022-11-17T03:27:52.141Z,11.03
2022-11-17T03:30:23.075Z,11.03
2022-11-17T03:32:55.778Z,11.06
2022-11-17T03:35:29.059Z,11.08
2022-11-17T03:38:04.801Z,11.04
2022-11-17T03:40:35.128Z,11.04
2022-11-17T03:43:08.075Z,11.04
2022-11-17T03:45:41.788Z,11.02
2022-11-17T03:48:15.588Z,11.02
2022-11-17T03:50:48.040Z,11.01
2022-11-17T03:53:16.463Z,11.01
2022-11-17T03:55:53.796Z,10.96
2022-11-17T03:58:24.031Z,10.95
2022-11-17T04:00:54.721Z,10.94
2022-11-17T04:03:23.712Z,10.95
2022-11-17T04:05:51.933Z,10.94
2022-11-17T04:08:20.258Z,10.96
2022-11-17T04:11:06.157Z,10.95
2022-11-17T04:13:51.750Z,10.91
2022-11-17T04:16:21.407Z,10.88
2022-11-17T04:18:51.433Z,10.89
2022-11-17T04:21:21.625Z,10.86
2022-11-17T04:23:49.853Z,10.87
2022-11-17T04:26:35.671Z,10.87
2022-11-17T04:29:04.129Z,10.84
2022-11-17T04:31:33.815Z,10.83
2022-11-17T04:34:04.129Z,10.84
2022-11-17T04:36:36.170Z,10.84
2022-11-17T04:39:05.408Z,10.84
2022-11-17T04:41:53.175Z,10.84
2022-11-17T04:44:23.978Z,10.84
2022-11-17T04:46:54.076Z,10.86
2022-11-17T04:49:24.175Z,10.86
2022-11-17T04:51:53.666Z,10.88
2022-11-17T04:54:25.156Z,10.89
2022-11-17T04:56:54.604Z,10.91
2022-11-17T04:59:23.187Z,10.93
2022-11-17T05:01:52.921Z,10.93
2022-11-17T05:04:36.550Z,10.92
2022-11-17T05:07:05.247Z,10.91
2022-11-17T05:09:33.633Z,10.89
2022-11-17T05:12:19.212Z,10.88
2022-11-17T05:14:50.303Z,10.86
2022-11-17T05:17:19.038Z,10.82
2022-11-17T05:19:48.949Z,10.83
2022-11-17T05:22:37.204Z,10.82
2022-11-17T05:25:07.300Z,10.79
2022-11-17T05:27:37.071Z,10.78
2022-11-17T05:30:07.849Z,10.77
2022-11-17T05:32:37.499Z,10.73
2022-11-17T05:35:06.946Z,10.71
2022-11-17T05:37:35.152Z,10.70
2022-11-17T05:40:03.447Z,10.71
2022-11-17T05:42:31.652Z,10.71
2022-11-17T05:44:59.889Z,10.69
2022-11-17T05:47:28.135Z,10.69
2022-11-17T05:49:57.699Z,10.70
2022-11-17T05:52:26.006Z,10.69
2022-11-17T05:54:54.238Z,10.70
2022-11-17T05:57:30.474Z,10.68
2022-11-17T06:00:04.466Z,10.70
2022-11-17T06:02:36.669Z,10.69
2022-11-17T06:05:07.610Z,10.70
2022-11-17T06:07:37.379Z,10.71
2022-11-17T06:10:06.922Z,10.71
2022-11-17T06:12:35.142Z,10.73
2022-11-17T06:15:03.564Z,10.74
2022-11-17T06:17:35.371Z,10.75
2022-11-17T06:20:10.612Z,10.76
2022-11-17T06:22:40.172Z,10.78
2022-11-17T06:25:12.068Z,10.79
2022-11-17T06:27:41.579Z,10.80
2022-11-17T06:30:10.738Z,10.83
2022-11-17T06:32:43.614Z,10.83
2022-11-17T06:35:16.634Z,10.83
2022-11-17T06:37:44.927Z,10.86
2022-11-17T06:40:13.520Z,10.87
2022-11-17T06:42:59.400Z,10.87
2022-11-17T06:45:28.268Z,10.88
2022-11-17T06:47:56.693Z,10.86
2022-11-17T06:50:26.299Z,10.86
2022-11-17T06:52:58.838Z,10.87
2022-11-17T06:55:27.582Z,10.86
2022-11-17T06:58:01.389Z,10.83
2022-11-17T07:00:30.312Z,10.83
2022-11-17T07:03:01.706Z,10.83
2022-11-17T07:05:32.089Z,10.83
2022-11-17T07:08:01.088Z,10.87
2022-11-17T07:10:30.493Z,10.87
2022-11-17T07:12:59.175Z,10.88
2022-11-17T07:15:27.983Z,10.88
2022-11-17T07:17:56.310Z,10.86
2022-11-17T07:20:24.699Z,10.86
2022-11-17T07:23:00.895Z,10.85
2022-11-17T07:25:29.218Z,10.84
2022-11-17T07:28:00.711Z,10.86
2022-11-17T07:30:29.016Z,10.85
2022-11-17T07:32:59.233Z,10.85
2022-11-17T07:35:27.525Z,10.86
2022-11-17T07:38:01.370Z,10.86
2022-11-17T07:40:30.122Z,10.85
2022-11-17T07:42:58.533Z,10.87
2022-11-17T07:45:31.892Z,10.89
2022-11-17T07:48:02.762Z,10.91
2022-11-17T07:50:31.430Z,10.93
2022-11-17T07:53:01.230Z,10.96
2022-11-17T07:55:29.774Z,10.98
2022-11-17T07:57:59.508Z,11.00
2022-11-17T08:00:30.579Z,11.02
2022-11-17T08:03:03.657Z,11.05
2022-11-17T08:05:32.348Z,11.06
2022-11-17T08:08:02.314Z,11.08
2022-11-17T08:10:31.625Z,11.05
2022-11-17T08:13:01.038Z,11.08
2022-11-17T08:15:29.788Z,11.08
2022-11-17T08:18:00.594Z,11.09
2022-11-17T08:20:30.866Z,11.10
2022-11-17T08:22:59.167Z,11.13
2022-11-17T08:25:29.386Z,11.13
2022-11-17T08:27:58.465Z,11.15
2022-11-17T08:30:28.585Z,11.16
2022-11-17T08:32:56.966Z,11.18
2022-11-17T08:35:26.734Z,11.20
2022-11-17T08:37:56.707Z,11.21
2022-11-17T08:40:26.496Z,11.20
2022-11-17T08:43:00.716Z,11.13
2022-11-17T08:45:29.555Z,11.09
2022-11-17T08:47:58.270Z,11.09
2022-11-17T08:50:27.091Z,11.10
2022-11-17T08:52:55.355Z,11.06
2022-11-17T08:55:23.842Z,11.01
2022-11-17T08:57:52.182Z,10.98
2022-11-17T09:00:22.307Z,10.94
2022-11-17T09:02:50.599Z,10.96
2022-11-17T09:05:19.023Z,10.98
2022-11-17T09:07:47.360Z,10.93
2022-11-17T09:10:15.738Z,10.92
2022-11-17T09:12:44.132Z,10.70
2022-11-17T09:15:12.594Z,10.82
2022-11-17T09:17:43.392Z,10.85
2022-11-17T09:20:13.165Z,10.91
2022-11-17T09:22:41.417Z,10.94
2022-11-17T09:25:13.477Z,10.92
2022-11-17T09:27:42.302Z,10.93
2022-11-17T09:30:11.820Z,10.93
2022-11-17T09:32:41.410Z,10.96
2022-11-17T09:35:10.992Z,10.94
2022-11-17T09:37:39.369Z,10.98
2022-11-17T09:40:12.101Z,11.02
2022-11-17T09:42:42.026Z,11.05
2022-11-17T09:45:18.809Z,11.07
2022-11-17T09:48:12.505Z,11.11
2022-11-17T09:50:48.220Z,11.16
2022-11-17T09:53:32.583Z,11.22
2022-11-17T09:56:05.563Z,11.28
2022-11-17T09:58:40.728Z,11.34
2022-11-17T10:01:12.988Z,11.42
2022-11-17T10:03:46.212Z,11.48
2022-11-17T10:06:18.914Z,11.55
2022-11-17T10:08:58.260Z,11.61
2022-11-17T10:11:33.544Z,11.68
2022-11-17T10:14:14.397Z,11.72
2022-11-17T10:16:46.226Z,11.75
2022-11-17T10:19:21.438Z,11.79
2022-11-17T10:21:53.890Z,11.83
2022-11-17T10:24:37.374Z,11.90
2022-11-17T10:27:11.546Z,11.98
2022-11-17T10:29:39.830Z,12.06
2022-11-17T10:32:16.104Z,12.17
2022-11-17T10:34:47.217Z,12.29
2022-11-17T10:37:30.052Z,12.39
2022-11-17T10:40:23.673Z,12.48
2022-11-17T10:43:22.327Z,12.60
2022-11-17T10:45:53.781Z,12.68
2022-11-17T10:48:29.030Z,12.72
2022-11-17T10:51:00.259Z,12.74
2022-11-17T10:53:45.206Z,12.76
2022-11-17T10:56:17.844Z,12.77
2022-11-17T10:59:02.414Z,12.77
2022-11-17T11:01:36.824Z,12.76
2022-11-17T11:04:07.693Z,12.77
2022-11-17T11:06:37.736Z,12.79
2022-11-17T11:09:12.722Z,12.78
2022-11-17T11:11:47.464Z,12.79
2022-11-17T11:14:24.929Z,12.79
2022-11-17T11:16:53.304Z,12.79
2022-11-17T11:19:22.423Z,12.80
2022-11-17T11:22:27.605Z,12.81
2022-11-17T11:25:12.090Z,12.81
2022-11-17T11:28:05.371Z,12.84
2022-11-17T11:30:43.319Z,12.84
2022-11-17T11:33:29.084Z,12.90
2022-11-17T11:36:19.475Z,12.92
2022-11-17T11:38:58.917Z,12.94
2022-11-17T11:41:43.801Z,12.99
2022-11-17T11:44:44.581Z,13.00
2022-11-17T11:47:26.199Z,13.02
2022-11-17T11:49:58.947Z,13.02
2022-11-17T11:52:32.755Z,13.04
2022-11-17T11:55:06.871Z,13.03
2022-11-17T11:57:38.954Z,13.04
2022-11-17T12:00:15.908Z,13.04
2022-11-17T12:02:54.300Z,13.05
2022-11-17T12:05:32.525Z,13.06
2022-11-17T12:08:10.883Z,13.06
2022-11-17T12:10:48.200Z,13.04
2022-11-17T12:13:20.440Z,13.05
2022-11-17T12:15:49.064Z,13.05
2022-11-17T12:18:34.283Z,13.05
2022-11-17T12:21:06.464Z,13.01
2022-11-17T12:23:56.172Z,13.03
2022-11-17T12:26:29.104Z,13.02
2022-11-17T12:29:46.648Z,13.01
2022-11-17T12:32:55.364Z,12.99
2022-11-17T12:35:26.884Z,13.02
2022-11-17T12:38:39.276Z,13.02
2022-11-17T12:41:07.602Z,13.06
2022-11-17T12:43:35.881Z,13.04
2022-11-17T12:46:23.126Z,13.03
2022-11-17T12:49:05.104Z,13.05
2022-11-17T12:51:41.368Z,13.01
2022-11-17T12:54:21.394Z,13.05
2022-11-17T12:56:59.325Z,13.06
2022-11-17T12:59:54.390Z,13.08
2022-11-17T13:02:38.422Z,13.10
2022-11-17T13:05:15.834Z,13.15
2022-11-17T13:07:44.081Z,13.20
2022-11-17T13:10:26.650Z,13.25
2022-11-17T13:13:13.813Z,13.22
2022-11-17T13:15:44.046Z,13.24
2022-11-17T13:18:20.041Z,13.31
2022-11-17T13:20:50.230Z,13.37
2022-11-17T13:23:23.567Z,13.38
2022-11-17T13:25:52.177Z,13.45
2022-11-17T13:28:31.899Z,13.47
2022-11-17T13:31:01.573Z,13.51
2022-11-17T13:33:33.309Z,13.56
2022-11-17T13:36:18.228Z,13.56
2022-11-17T13:38:51.214Z,13.60
2022-11-17T13:41:20.846Z,13.59
2022-11-17T13:43:51.001Z,13.58
2022-11-17T13:46:19.876Z,13.56
2022-11-17T13:48:50.279Z,13.58
2022-11-17T13:51:29.643Z,13.49
2022-11-17T13:54:04.925Z,13.49
2022-11-17T13:56:36.833Z,13.43
2022-11-17T13:59:18.127Z,13.43
2022-11-17T14:01:46.842Z,13.42
2022-11-17T14:04:22.049Z,13.42
2022-11-17T14:06:58.026Z,13.42
2022-11-17T14:09:27.614Z,13.42
2022-11-17T14:11:56.357Z,13.43
2022-11-17T14:14:33.948Z,13.41
2022-11-17T14:17:14.106Z,13.35
2022-11-17T14:19:42.433Z,13.37
2022-11-17T14:22:31.426Z,13.30
2022-11-17T14:25:00.607Z,13.32
2022-11-17T14:27:41.370Z,13.29
2022-11-17T14:30:15.808Z,13.31
2022-11-17T14:32:44.107Z,13.33
2022-11-17T14:35:15.656Z,13.32
2022-11-17T14:37:45.378Z,13.30
2022-11-17T14:40:19.017Z,13.28
2022-11-17T14:42:47.295Z,13.28
2022-11-17T14:45:17.633Z,13.28
2022-11-17T14:47:46.113Z,13.26
2022-11-17T14:50:16.838Z,13.29
2022-11-17T14:52:46.916Z,13.30
2022-11-17T14:55:16.140Z,13.28
2022-11-17T14:57:46.384Z,13.26
2022-11-17T15:00:20.607Z,13.23
2022-11-17T15:02:49.809Z,13.18
2022-11-17T15:05:18.759Z,13.14
2022-11-17T15:07:48.386Z,13.06
2022-11-17T15:10:17.007Z,13.03
2022-11-17T15:12:45.543Z,12.98
2022-11-17T15:15:13.826Z,12.93
2022-11-17T15:17:42.133Z,12.89
2022-11-17T15:20:11.851Z,12.82
2022-11-17T15:22:40.229Z,12.79
2022-11-17T15:25:10.815Z,12.76
2022-11-17T15:27:39.072Z,12.73
2022-11-17T15:30:09.377Z,12.71
2022-11-17T15:32:38.522Z,12.67
2022-11-17T15:35:07.953Z,12.64
2022-11-17T15:37:36.277Z,12.60
2022-11-17T15:40:05.497Z,12.57
2022-11-17T15:42:35.234Z,12.54
2022-11-17T15:45:03.570Z,12.46
2022-11-17T15:47:31.964Z,12.44
2022-11-17T15:50:10.765Z,12.34
2022-11-17T15:53:02.868Z,12.38
2022-11-17T15:55:27.463Z,12.31
2022-11-17T15:57:57.542Z,12.27
2022-11-17T16:00:26.099Z,12.26
2022-11-17T16:02:58.626Z,12.24
2022-11-17T16:05:27.408Z,12.18
2022-11-17T16:07:55.836Z,12.15
2022-11-17T16:10:24.291Z,12.13
2022-11-17T16:12:53.007Z,12.10
2022-11-17T16:15:23.431Z,12.04
2022-11-17T16:17:51.812Z,12.01
2022-11-17T16:20:20.298Z,12.00
2022-11-17T16:22:48.807Z,11.96
2022-11-17T16:25:17.207Z,11.93
2022-11-17T16:27:45.589Z,11.90
2022-11-17T16:30:14.905Z,11.87
2022-11-17T16:32:44.717Z,11.86
2022-11-17T16:35:13.172Z,11.85
2022-11-17T16:37:41.474Z,11.85
2022-11-17T16:40:10.880Z,11.82
2022-11-17T16:42:39.260Z,11.79
2022-11-17T16:45:09.119Z,11.78
2022-11-17T16:47:37.596Z,11.76
2022-11-17T16:50:08.575Z,11.72
2022-11-17T16:52:36.965Z,11.69
2022-11-17T16:55:06.379Z,11.65
2022-11-17T16:57:34.884Z,11.61
2022-11-17T17:00:03.896Z,11.58
2022-11-17T17:02:33.149Z,11.56
2022-11-17T17:05:01.625Z,11.52
2022-11-17T17:07:31.437Z,11.48
2022-11-17T17:09:59.918Z,11.44
2022-11-17T17:12:29.422Z,11.42
2022-11-17T17:14:57.849Z,11.39
2022-11-17T17:17:26.365Z,11.34
2022-11-17T17:19:54.836Z,11.31
2022-11-17T17:22:24.233Z,11.29
2022-11-17T17:24:54.059Z,11.25
2022-11-17T17:27:22.519Z,11.22
2022-11-17T17:29:54.602Z,11.20
2022-11-17T17:32:22.968Z,11.17
2022-11-17T17:34:51.750Z,11.13
2022-11-17T17:37:20.383Z,11.12
2022-11-17T17:39:48.802Z,11.08
2022-11-17T17:42:18.458Z,11.05
2022-11-17T17:44:46.687Z,11.04
2022-11-17T17:47:14.946Z,11.01
2022-11-17T17:49:43.201Z,10.98
2022-11-17T17:52:13.992Z,10.96
2022-11-17T17:54:42.401Z,10.94
2022-11-17T17:57:10.767Z,10.92
2022-11-17T17:59:40.396Z,10.91
2022-11-17T18:02:09.946Z,10.89
2022-11-17T18:04:38.278Z,10.88
2022-11-17T18:07:06.656Z,10.88
2022-11-17T18:09:34.921Z,10.88
2022-11-17T18:12:03.256Z,10.87
2022-11-17T18:14:31.515Z,10.86
2022-11-17T18:17:01.179Z,10.85
2022-11-17T18:19:32.924Z,10.85
2022-11-17T18:22:02.175Z,10.84
2022-11-17T18:24:30.442Z,10.84
2022-11-17T18:26:58.716Z,10.82
2022-11-17T18:29:27.271Z,10.82
2022-11-17T18:31:55.553Z,10.81
2022-11-17T18:34:26.442Z,10.81
2022-11-17T18:36:56.671Z,10.82
2022-11-17T18:39:25.460Z,10.82
2022-11-17T18:41:53.734Z,10.82
2022-11-17T18:44:22.090Z,10.83
2022-11-17T18:46:50.325Z,10.83
2022-11-17T18:49:19.142Z,10.85
2022-11-17T18:51:49.236Z,10.85
2022-11-17T18:54:17.522Z,10.85
2022-11-17T18:56:45.783Z,10.85
2022-11-17T18:59:14.772Z,10.86
2022-11-17T19:01:44.243Z,10.87
2022-11-17T19:04:14.627Z,10.87
2022-11-17T19:06:42.891Z,10.88
2022-11-17T19:09:13.431Z,10.89
2022-11-17T19:11:42.013Z,10.91
2022-11-17T19:14:10.309Z,10.93
2022-11-17T19:16:44.033Z,10.94
2022-11-17T19:19:15.168Z,10.93
2022-11-17T19:21:44.152Z,10.93
2022-11-17T19:24:15.240Z,10.93
2022-11-17T19:26:43.604Z,10.95
2022-11-17T19:29:17.214Z,10.93
2022-11-17T19:31:46.759Z,10.91
2022-11-17T19:34:15.721Z,10.90
2022-11-17T19:36:44.569Z,10.90
2022-11-17T19:39:15.422Z,10.90
2022-11-17T19:41:47.680Z,10.90
2022-11-17T19:44:16.027Z,10.90
2022-11-17T19:46:44.309Z,10.89
2022-11-17T19:49:13.202Z,10.89
2022-11-17T19:51:41.986Z,10.88
2022-11-17T19:54:11.420Z,10.89
2022-11-17T19:56:41.209Z,10.89
2022-11-17T19:59:15.367Z,10.89
2022-11-17T20:01:45.139Z,10.89
2022-11-17T20:04:13.562Z,10.88
2022-11-17T20:06:41.890Z,10.88
2022-11-17T20:09:12.152Z,10.87
2022-11-17T20:11:42.493Z,10.85
2022-11-17T20:14:11.021Z,10.86
2022-11-17T20:16:39.538Z,10.85
2022-11-17T20:19:08.113Z,10.85
2022-11-17T20:21:36.592Z,10.83
2022-11-17T20:24:05.117Z,10.80
2022-11-17T20:26:35.262Z,10.81
2022-11-17T20:29:04.892Z,10.78
2022-11-17T20:31:36.132Z,10.77
2022-11-17T20:34:06.508Z,10.76
2022-11-17T20:36:35.593Z,10.76
2022-11-17T20:39:06.265Z,10.76
2022-11-17T20:41:34.637Z,10.75
2022-11-17T20:44:04.716Z,10.73
2022-11-17T20:46:33.009Z,10.75
2022-11-17T20:49:01.341Z,10.76
2022-11-17T20:51:29.580Z,10.77
2022-11-17T20:53:59.002Z,10.77
2022-11-17T20:56:27.240Z,10.77
2022-11-17T20:58:55.488Z,10.78
2022-11-17T21:01:25.163Z,10.78
2022-11-17T21:03:54.101Z,10.79
2022-11-17T21:06:23.348Z,10.78
2022-11-17T21:08:51.810Z,10.79
2022-11-17T21:11:40.165Z,10.80
2022-11-17T21:14:10.949Z,10.78
2022-11-17T21:16:44.351Z,10.80
2022-11-17T21:19:13.060Z,10.80
2022-11-17T21:21:41.519Z,10.80
2022-11-17T21:24:11.233Z,10.81
2022-11-17T21:26:39.536Z,10.81
2022-11-17T21:29:07.792Z,10.81
2022-11-17T21:31:36.522Z,10.81
2022-11-17T21:34:08.140Z,10.79
2022-11-17T21:36:36.929Z,10.81
2022-11-17T21:39:06.097Z,10.81
2022-11-17T21:41:37.852Z,10.82
2022-11-17T21:44:06.341Z,10.81
2022-11-17T21:46:36.304Z,10.81
2022-11-17T21:49:06.332Z,10.81
2022-11-17T21:51:38.543Z,10.81
2022-11-17T21:54:09.740Z,10.80
2022-11-17T21:56:38.490Z,10.81
2022-11-17T21:59:11.060Z,10.81
2022-11-17T22:01:39.897Z,10.80
2022-11-17T22:04:09.670Z,10.82
2022-11-17T22:06:40.020Z,10.81
2022-11-17T22:09:08.482Z,10.83
2022-11-17T22:11:37.497Z,10.83
2022-11-17T22:14:09.842Z,10.83
2022-11-17T22:16:40.079Z,10.83
2022-11-17T22:19:10.523Z,10.84
2022-11-17T22:21:39.889Z,10.84
2022-11-17T22:24:11.122Z,10.85
2022-11-17T22:26:41.443Z,10.87
2022-11-17T22:29:14.989Z,10.87
2022-11-17T22:31:44.168Z,10.86
2022-11-17T22:34:14.338Z,10.87
2022-11-17T22:36:42.743Z,10.86
2022-11-17T22:39:11.097Z,10.86
2022-11-17T22:41:39.482Z,10.85
2022-11-17T22:44:07.879Z,10.85
2022-11-17T22:46:36.534Z,10.84
2022-11-17T22:49:04.878Z,10.85
2022-11-17T22:51:51.965Z,10.85
2022-11-17T22:54:20.244Z,10.83
2022-11-17T22:56:48.577Z,10.83
2022-11-17T22:59:17.583Z,10.84
2022-11-17T23:01:46.102Z,10.83
2022-11-17T23:04:15.649Z,10.84
2022-11-17T23:06:45.826Z,10.83
2022-11-17T23:09:14.422Z,10.84
2022-11-17T23:11:43.709Z,10.84
2022-11-17T23:14:14.948Z,10.82
2022-11-17T23:16:43.594Z,10.84
2022-11-17T23:19:14.560Z,10.82
2022-11-17T23:21:44.400Z,10.81
2022-11-17T23:24:14.634Z,10.81
2022-11-17T23:26:43.868Z,10.82
2022-11-17T23:29:12.416Z,10.82
2022-11-17T23:31:40.829Z,10.81
2022-11-17T23:34:12.145Z,10.82
2022-11-17T23:36:40.425Z,10.81
2022-11-17T23:39:10.266Z,10.81
2022-11-17T23:41:38.863Z,10.81
2022-11-17T23:44:07.625Z,10.78
2022-11-17T23:46:35.893Z,10.79
2022-11-17T23:49:04.717Z,10.79
2022-11-17T23:51:33.058Z,10.80
2022-11-17T23:54:02.851Z,10.80
2022-11-17T23:56:35.266Z,10.79
2022-11-17T23:59:03.640Z,10.79
